sensor_id;sensor_type;location;lat;lon;timestamp;P1;durP1;ratioP1;P2;durP2;ratioP2
22435;SDS011;11385;50.822;4.324;2023-04-24T00:01:36;21.15;;;12.58;;
22435;SDS011;11385;50.822;4.324;2023-04-24T00:04:05;17.95;;;11.55;;
22435;SDS011;11385;50.822;4.324;2023-04-24T00:06:34;19.95;;;12.55;;
22435;SDS011;11385;50.822;4.324;2023-04-24T00:09:03;23.65;;;13.30;;
22435;SDS011;11385;50.822;4.324;2023-04-24T00:11:30;20.20;;;13.05;;
22435;SDS011;11385;50.822;4.324;2023-04-24T00:13:58;25.43;;;14.53;;
22435;SDS011;11385;50.822;4.324;2023-04-24T00:16:25;23.85;;;13.38;;
22435;SDS011;11385;50.822;4.324;2023-04-24T00:18:51;20.50;;;14.35;;
22435;SDS011;11385;50.822;4.324;2023-04-24T00:21:18;25.27;;;14.43;;
22435;SDS011;11385;50.822;4.324;2023-04-24T00:23:46;28.77;;;14.10;;
22435;SDS011;11385;50.822;4.324;2023-04-24T00:26:12;15.90;;;10.30;;
22435;SDS011;11385;50.822;4.324;2023-04-24T00:28:39;24.00;;;13.98;;
22435;SDS011;11385;50.822;4.324;2023-04-24T00:31:06;22.73;;;15.18;;
22435;SDS011;11385;50.822;4.324;2023-04-24T00:33:33;22.50;;;14.53;;
22435;SDS011;11385;50.822;4.324;2023-04-24T00:36:01;26.95;;;15.03;;
22435;SDS011;11385;50.822;4.324;2023-04-24T00:38:29;19.92;;;14.05;;
22435;SDS011;11385;50.822;4.324;2023-04-24T00:40:56;22.32;;;14.65;;
22435;SDS011;11385;50.822;4.324;2023-04-24T00:43:22;21.10;;;14.60;;
22435;SDS011;11385;50.822;4.324;2023-04-24T00:45:49;23.42;;;15.43;;
22435;SDS011;11385;50.822;4.324;2023-04-24T00:48:16;22.87;;;15.23;;
22435;SDS011;11385;50.822;4.324;2023-04-24T00:50:44;22.50;;;13.38;;
22435;SDS011;11385;50.822;4.324;2023-04-24T00:53:11;20.82;;;13.78;;
22435;SDS011;11385;50.822;4.324;2023-04-24T00:55:38;25.57;;;14.15;;
22435;SDS011;11385;50.822;4.324;2023-04-24T00:58:05;24.30;;;14.13;;
22435;SDS011;11385;50.822;4.324;2023-04-24T01:00:32;28.65;;;16.93;;
22435;SDS011;11385;50.822;4.324;2023-04-24T01:02:59;25.68;;;14.85;;
22435;SDS011;11385;50.822;4.324;2023-04-24T01:05:29;21.73;;;13.85;;
22435;SDS011;11385;50.822;4.324;2023-04-24T01:07:56;24.72;;;15.23;;
22435;SDS011;11385;50.822;4.324;2023-04-24T01:10:23;24.27;;;14.70;;
22435;SDS011;11385;50.822;4.324;2023-04-24T01:12:51;24.50;;;14.98;;
22435;SDS011;11385;50.822;4.324;2023-04-24T01:15:19;29.63;;;14.50;;
22435;SDS011;11385;50.822;4.324;2023-04-24T01:17:45;44.95;;;24.32;;
22435;SDS011;11385;50.822;4.324;2023-04-24T01:20:12;23.62;;;14.65;;
22435;SDS011;11385;50.822;4.324;2023-04-24T01:22:39;23.77;;;16.23;;
22435;SDS011;11385;50.822;4.324;2023-04-24T01:25:06;24.92;;;15.93;;
22435;SDS011;11385;50.822;4.324;2023-04-24T01:27:34;26.05;;;17.05;;
22435;SDS011;11385;50.822;4.324;2023-04-24T01:30:01;27.07;;;16.90;;
22435;SDS011;11385;50.822;4.324;2023-04-24T01:32:29;26.00;;;15.13;;
22435;SDS011;11385;50.822;4.324;2023-04-24T01:34:56;22.05;;;13.80;;
22435;SDS011;11385;50.822;4.324;2023-04-24T01:37:23;24.05;;;14.43;;
22435;SDS011;11385;50.822;4.324;2023-04-24T01:39:49;23.42;;;13.75;;
22435;SDS011;11385;50.822;4.324;2023-04-24T01:42:16;22.90;;;13.70;;
22435;SDS011;11385;50.822;4.324;2023-04-24T01:44:43;23.25;;;14.00;;
22435;SDS011;11385;50.822;4.324;2023-04-24T01:47:10;17.90;;;14.38;;
22435;SDS011;11385;50.822;4.324;2023-04-24T01:49:37;18.62;;;12.70;;
22435;SDS011;11385;50.822;4.324;2023-04-24T01:52:04;22.90;;;14.73;;
22435;SDS011;11385;50.822;4.324;2023-04-24T01:54:32;23.95;;;15.98;;
22435;SDS011;11385;50.822;4.324;2023-04-24T01:57:00;24.95;;;15.23;;
22435;SDS011;11385;50.822;4.324;2023-04-24T01:59:28;21.50;;;14.47;;
22435;SDS011;11385;50.822;4.324;2023-04-24T02:01:56;24.77;;;16.50;;
22435;SDS011;11385;50.822;4.324;2023-04-24T02:04:22;25.30;;;16.27;;
22435;SDS011;11385;50.822;4.324;2023-04-24T02:06:49;28.60;;;17.95;;
22435;SDS011;11385;50.822;4.324;2023-04-24T02:09:16;30.32;;;17.87;;
22435;SDS011;11385;50.822;4.324;2023-04-24T02:11:43;25.23;;;17.37;;
22435;SDS011;11385;50.822;4.324;2023-04-24T02:14:10;28.00;;;17.25;;
22435;SDS011;11385;50.822;4.324;2023-04-24T02:16:36;28.92;;;18.98;;
22435;SDS011;11385;50.822;4.324;2023-04-24T02:19:03;25.45;;;18.77;;
22435;SDS011;11385;50.822;4.324;2023-04-24T02:21:30;23.85;;;17.45;;
22435;SDS011;11385;50.822;4.324;2023-04-24T02:23:58;29.67;;;19.62;;
22435;SDS011;11385;50.822;4.324;2023-04-24T02:26:25;28.55;;;19.00;;
22435;SDS011;11385;50.822;4.324;2023-04-24T02:28:52;25.15;;;17.77;;
22435;SDS011;11385;50.822;4.324;2023-04-24T02:31:19;29.55;;;17.60;;
22435;SDS011;11385;50.822;4.324;2023-04-24T02:33:46;26.15;;;17.92;;
22435;SDS011;11385;50.822;4.324;2023-04-24T02:36:13;23.85;;;16.20;;
22435;SDS011;11385;50.822;4.324;2023-04-24T02:38:39;24.90;;;17.82;;
22435;SDS011;11385;50.822;4.324;2023-04-24T02:41:06;44.20;;;25.70;;
22435;SDS011;11385;50.822;4.324;2023-04-24T02:43:34;24.50;;;17.85;;
22435;SDS011;11385;50.822;4.324;2023-04-24T02:46:01;24.57;;;16.25;;
22435;SDS011;11385;50.822;4.324;2023-04-24T02:48:28;26.55;;;15.85;;
22435;SDS011;11385;50.822;4.324;2023-04-24T02:50:55;23.92;;;14.50;;
22435;SDS011;11385;50.822;4.324;2023-04-24T02:53:23;26.50;;;16.62;;
22435;SDS011;11385;50.822;4.324;2023-04-24T02:55:50;26.68;;;15.98;;
22435;SDS011;11385;50.822;4.324;2023-04-24T02:58:16;21.20;;;13.78;;
22435;SDS011;11385;50.822;4.324;2023-04-24T03:00:45;26.87;;;15.05;;
22435;SDS011;11385;50.822;4.324;2023-04-24T03:03:12;20.77;;;13.68;;
22435;SDS011;11385;50.822;4.324;2023-04-24T03:05:40;20.85;;;14.47;;
22435;SDS011;11385;50.822;4.324;2023-04-24T03:08:07;24.23;;;14.45;;
22435;SDS011;11385;50.822;4.324;2023-04-24T03:10:34;20.75;;;13.68;;
22435;SDS011;11385;50.822;4.324;2023-04-24T03:13:00;23.42;;;14.40;;
22435;SDS011;11385;50.822;4.324;2023-04-24T03:15:28;19.52;;;12.98;;
22435;SDS011;11385;50.822;4.324;2023-04-24T03:17:54;23.75;;;14.05;;
22435;SDS011;11385;50.822;4.324;2023-04-24T03:20:21;23.02;;;12.90;;
22435;SDS011;11385;50.822;4.324;2023-04-24T03:22:48;21.42;;;13.93;;
22435;SDS011;11385;50.822;4.324;2023-04-24T03:25:15;19.12;;;12.50;;
22435;SDS011;11385;50.822;4.324;2023-04-24T03:27:42;21.20;;;12.68;;
22435;SDS011;11385;50.822;4.324;2023-04-24T03:30:09;19.17;;;13.10;;
22435;SDS011;11385;50.822;4.324;2023-04-24T03:32:35;19.30;;;13.35;;
22435;SDS011;11385;50.822;4.324;2023-04-24T03:35:05;16.93;;;11.55;;
22435;SDS011;11385;50.822;4.324;2023-04-24T03:37:33;15.18;;;10.88;;
22435;SDS011;11385;50.822;4.324;2023-04-24T03:40:01;18.40;;;12.47;;
22435;SDS011;11385;50.822;4.324;2023-04-24T03:42:28;17.45;;;11.10;;
22435;SDS011;11385;50.822;4.324;2023-04-24T03:44:55;16.52;;;11.08;;
22435;SDS011;11385;50.822;4.324;2023-04-24T03:47:22;17.17;;;11.43;;
22435;SDS011;11385;50.822;4.324;2023-04-24T03:49:48;16.52;;;11.53;;
22435;SDS011;11385;50.822;4.324;2023-04-24T03:52:15;18.65;;;10.95;;
22435;SDS011;11385;50.822;4.324;2023-04-24T03:54:42;17.57;;;10.28;;
22435;SDS011;11385;50.822;4.324;2023-04-24T03:57:08;15.28;;;10.43;;
22435;SDS011;11385;50.822;4.324;2023-04-24T03:59:35;13.62;;;10.28;;
22435;SDS011;11385;50.822;4.324;2023-04-24T04:02:02;14.78;;;10.55;;
22435;SDS011;11385;50.822;4.324;2023-04-24T04:04:29;15.88;;;10.85;;
22435;SDS011;11385;50.822;4.324;2023-04-24T04:06:55;13.45;;;9.40;;
22435;SDS011;11385;50.822;4.324;2023-04-24T04:09:25;13.43;;;9.20;;
22435;SDS011;11385;50.822;4.324;2023-04-24T04:11:52;15.93;;;8.30;;
22435;SDS011;11385;50.822;4.324;2023-04-24T04:14:19;11.15;;;7.90;;
22435;SDS011;11385;50.822;4.324;2023-04-24T04:16:46;12.33;;;8.30;;
22435;SDS011;11385;50.822;4.324;2023-04-24T04:19:12;14.15;;;8.33;;
22435;SDS011;11385;50.822;4.324;2023-04-24T04:21:39;11.38;;;8.45;;
22435;SDS011;11385;50.822;4.324;2023-04-24T04:24:07;12.05;;;7.92;;
22435;SDS011;11385;50.822;4.324;2023-04-24T04:26:34;15.30;;;8.38;;
22435;SDS011;11385;50.822;4.324;2023-04-24T04:29:01;11.20;;;7.47;;
22435;SDS011;11385;50.822;4.324;2023-04-24T04:31:28;9.78;;;8.00;;
22435;SDS011;11385;50.822;4.324;2023-04-24T04:33:56;9.73;;;6.95;;
22435;SDS011;11385;50.822;4.324;2023-04-24T04:36:22;11.08;;;7.28;;
22435;SDS011;11385;50.822;4.324;2023-04-24T04:38:49;11.28;;;7.55;;
22435;SDS011;11385;50.822;4.324;2023-04-24T04:41:16;11.63;;;7.33;;
22435;SDS011;11385;50.822;4.324;2023-04-24T04:43:43;13.90;;;8.50;;
22435;SDS011;11385;50.822;4.324;2023-04-24T04:46:11;11.45;;;8.80;;
22435;SDS011;11385;50.822;4.324;2023-04-24T04:48:38;11.08;;;7.92;;
22435;SDS011;11385;50.822;4.324;2023-04-24T04:51:06;14.45;;;9.85;;
22435;SDS011;11385;50.822;4.324;2023-04-24T04:53:32;16.87;;;10.85;;
22435;SDS011;11385;50.822;4.324;2023-04-24T04:55:59;20.45;;;11.85;;
22435;SDS011;11385;50.822;4.324;2023-04-24T04:58:26;15.85;;;11.50;;
22435;SDS011;11385;50.822;4.324;2023-04-24T05:00:53;18.17;;;11.63;;
22435;SDS011;11385;50.822;4.324;2023-04-24T05:03:19;20.88;;;12.35;;
22435;SDS011;11385;50.822;4.324;2023-04-24T05:05:46;19.70;;;12.85;;
22435;SDS011;11385;50.822;4.324;2023-04-24T05:08:13;23.87;;;12.90;;
22435;SDS011;11385;50.822;4.324;2023-04-24T05:10:39;24.47;;;12.65;;
22435;SDS011;11385;50.822;4.324;2023-04-24T05:13:06;19.85;;;11.33;;
22435;SDS011;11385;50.822;4.324;2023-04-24T05:15:33;21.55;;;13.68;;
22435;SDS011;11385;50.822;4.324;2023-04-24T05:17:59;22.87;;;13.22;;
22435;SDS011;11385;50.822;4.324;2023-04-24T05:20:26;21.55;;;13.22;;
22435;SDS011;11385;50.822;4.324;2023-04-24T05:22:53;23.83;;;15.28;;
22435;SDS011;11385;50.822;4.324;2023-04-24T05:25:19;27.00;;;14.43;;
22435;SDS011;11385;50.822;4.324;2023-04-24T05:27:46;21.65;;;13.65;;
22435;SDS011;11385;50.822;4.324;2023-04-24T05:30:13;21.82;;;14.93;;
22435;SDS011;11385;50.822;4.324;2023-04-24T05:32:40;24.10;;;14.90;;
22435;SDS011;11385;50.822;4.324;2023-04-24T05:35:07;25.08;;;15.90;;
22435;SDS011;11385;50.822;4.324;2023-04-24T05:37:34;28.62;;;21.45;;
22435;SDS011;11385;50.822;4.324;2023-04-24T05:40:00;21.42;;;14.55;;
22435;SDS011;11385;50.822;4.324;2023-04-24T05:42:27;27.40;;;15.40;;
22435;SDS011;11385;50.822;4.324;2023-04-24T05:44:54;22.58;;;14.07;;
22435;SDS011;11385;50.822;4.324;2023-04-24T05:47:21;23.87;;;15.05;;
22435;SDS011;11385;50.822;4.324;2023-04-24T05:49:47;22.42;;;14.43;;
22435;SDS011;11385;50.822;4.324;2023-04-24T05:52:14;22.60;;;14.68;;
22435;SDS011;11385;50.822;4.324;2023-04-24T05:54:41;26.95;;;14.73;;
22435;SDS011;11385;50.822;4.324;2023-04-24T05:57:07;24.67;;;14.28;;
22435;SDS011;11385;50.822;4.324;2023-04-24T05:59:36;20.00;;;14.68;;
22435;SDS011;11385;50.822;4.324;2023-04-24T06:02:04;22.55;;;15.08;;
22435;SDS011;11385;50.822;4.324;2023-04-24T06:04:33;21.00;;;14.05;;
22435;SDS011;11385;50.822;4.324;2023-04-24T06:07:00;27.20;;;14.15;;
22435;SDS011;11385;50.822;4.324;2023-04-24T06:09:28;22.48;;;14.93;;
22435;SDS011;11385;50.822;4.324;2023-04-24T06:11:55;24.02;;;14.83;;
22435;SDS011;11385;50.822;4.324;2023-04-24T06:14:23;23.98;;;14.38;;
22435;SDS011;11385;50.822;4.324;2023-04-24T06:16:49;24.35;;;14.47;;
22435;SDS011;11385;50.822;4.324;2023-04-24T06:19:16;26.30;;;15.32;;
22435;SDS011;11385;50.822;4.324;2023-04-24T06:21:43;27.77;;;14.65;;
22435;SDS011;11385;50.822;4.324;2023-04-24T06:24:10;25.02;;;15.25;;
22435;SDS011;11385;50.822;4.324;2023-04-24T06:26:37;23.35;;;14.53;;
22435;SDS011;11385;50.822;4.324;2023-04-24T06:29:04;24.15;;;15.72;;
22435;SDS011;11385;50.822;4.324;2023-04-24T06:31:30;22.95;;;15.80;;
22435;SDS011;11385;50.822;4.324;2023-04-24T06:33:59;26.77;;;15.95;;
22435;SDS011;11385;50.822;4.324;2023-04-24T06:36:27;26.30;;;16.67;;
22435;SDS011;11385;50.822;4.324;2023-04-24T06:38:54;28.27;;;17.48;;
22435;SDS011;11385;50.822;4.324;2023-04-24T06:41:21;27.70;;;17.25;;
22435;SDS011;11385;50.822;4.324;2023-04-24T06:43:47;25.52;;;17.65;;
22435;SDS011;11385;50.822;4.324;2023-04-24T06:46:14;27.48;;;18.25;;
22435;SDS011;11385;50.822;4.324;2023-04-24T06:48:41;27.25;;;17.55;;
22435;SDS011;11385;50.822;4.324;2023-04-24T06:51:07;30.37;;;18.48;;
22435;SDS011;11385;50.822;4.324;2023-04-24T06:53:34;32.20;;;21.68;;
22435;SDS011;11385;50.822;4.324;2023-04-24T06:56:01;28.87;;;18.62;;
22435;SDS011;11385;50.822;4.324;2023-04-24T06:58:28;30.05;;;18.85;;
22435;SDS011;11385;50.822;4.324;2023-04-24T07:00:56;30.00;;;18.65;;
22435;SDS011;11385;50.822;4.324;2023-04-24T07:03:23;27.80;;;17.77;;
22435;SDS011;11385;50.822;4.324;2023-04-24T07:05:49;31.68;;;17.98;;
22435;SDS011;11385;50.822;4.324;2023-04-24T07:08:16;32.25;;;18.77;;
22435;SDS011;11385;50.822;4.324;2023-04-24T07:10:44;29.48;;;17.27;;
22435;SDS011;11385;50.822;4.324;2023-04-24T07:13:12;30.60;;;18.02;;
22435;SDS011;11385;50.822;4.324;2023-04-24T07:15:38;32.40;;;16.00;;
22435;SDS011;11385;50.822;4.324;2023-04-24T07:18:06;25.30;;;16.82;;
22435;SDS011;11385;50.822;4.324;2023-04-24T07:20:35;26.33;;;16.02;;
22435;SDS011;11385;50.822;4.324;2023-04-24T07:23:02;27.77;;;16.00;;
22435;SDS011;11385;50.822;4.324;2023-04-24T07:25:29;26.15;;;16.15;;
22435;SDS011;11385;50.822;4.324;2023-04-24T07:27:56;23.00;;;16.05;;
22435;SDS011;11385;50.822;4.324;2023-04-24T07:30:24;24.15;;;15.38;;
22435;SDS011;11385;50.822;4.324;2023-04-24T07:32:51;28.52;;;15.50;;
22435;SDS011;11385;50.822;4.324;2023-04-24T07:35:17;26.48;;;16.50;;
22435;SDS011;11385;50.822;4.324;2023-04-24T07:37:45;26.90;;;18.50;;
22435;SDS011;11385;50.822;4.324;2023-04-24T07:40:12;33.75;;;21.65;;
22435;SDS011;11385;50.822;4.324;2023-04-24T07:42:39;28.42;;;17.23;;
22435;SDS011;11385;50.822;4.324;2023-04-24T07:45:07;28.05;;;17.20;;
22435;SDS011;11385;50.822;4.324;2023-04-24T07:47:33;26.75;;;16.87;;
22435;SDS011;11385;50.822;4.324;2023-04-24T07:50:02;36.05;;;19.32;;
22435;SDS011;11385;50.822;4.324;2023-04-24T07:52:29;24.27;;;15.90;;
22435;SDS011;11385;50.822;4.324;2023-04-24T07:54:56;22.98;;;14.23;;
22435;SDS011;11385;50.822;4.324;2023-04-24T07:57:24;24.65;;;14.43;;
22435;SDS011;11385;50.822;4.324;2023-04-24T07:59:51;25.88;;;15.25;;
22435;SDS011;11385;50.822;4.324;2023-04-24T08:02:17;24.23;;;11.75;;
22435;SDS011;11385;50.822;4.324;2023-04-24T08:04:44;20.35;;;10.28;;
22435;SDS011;11385;50.822;4.324;2023-04-24T08:07:11;22.27;;;11.22;;
22435;SDS011;11385;50.822;4.324;2023-04-24T08:09:38;20.72;;;11.88;;
22435;SDS011;11385;50.822;4.324;2023-04-24T08:12:05;15.15;;;9.03;;
22435;SDS011;11385;50.822;4.324;2023-04-24T08:14:32;17.40;;;9.30;;
22435;SDS011;11385;50.822;4.324;2023-04-24T08:16:58;17.10;;;7.55;;
22435;SDS011;11385;50.822;4.324;2023-04-24T08:19:26;15.40;;;8.63;;
22435;SDS011;11385;50.822;4.324;2023-04-24T08:21:53;18.90;;;9.30;;
22435;SDS011;11385;50.822;4.324;2023-04-24T08:24:19;20.60;;;8.65;;
22435;SDS011;11385;50.822;4.324;2023-04-24T08:26:46;21.90;;;8.93;;
22435;SDS011;11385;50.822;4.324;2023-04-24T08:29:16;17.70;;;8.53;;
22435;SDS011;11385;50.822;4.324;2023-04-24T08:31:42;16.45;;;8.10;;
22435;SDS011;11385;50.822;4.324;2023-04-24T08:34:09;14.93;;;6.65;;
22435;SDS011;11385;50.822;4.324;2023-04-24T08:36:36;10.70;;;6.33;;
22435;SDS011;11385;50.822;4.324;2023-04-24T08:39:05;13.62;;;8.00;;
22435;SDS011;11385;50.822;4.324;2023-04-24T08:41:33;13.58;;;7.60;;
22435;SDS011;11385;50.822;4.324;2023-04-24T08:44:01;19.48;;;8.15;;
22435;SDS011;11385;50.822;4.324;2023-04-24T08:46:29;15.98;;;7.58;;
22435;SDS011;11385;50.822;4.324;2023-04-24T08:48:56;16.77;;;6.83;;
22435;SDS011;11385;50.822;4.324;2023-04-24T08:51:24;14.47;;;6.10;;
22435;SDS011;11385;50.822;4.324;2023-04-24T08:53:53;12.43;;;6.28;;
22435;SDS011;11385;50.822;4.324;2023-04-24T08:56:21;14.47;;;6.53;;
22435;SDS011;11385;50.822;4.324;2023-04-24T08:58:50;12.10;;;4.83;;
22435;SDS011;11385;50.822;4.324;2023-04-24T09:01:19;11.45;;;5.85;;
22435;SDS011;11385;50.822;4.324;2023-04-24T09:03:48;14.45;;;5.20;;
22435;SDS011;11385;50.822;4.324;2023-04-24T09:06:16;10.55;;;4.40;;
22435;SDS011;11385;50.822;4.324;2023-04-24T09:08:45;11.33;;;5.10;;
22435;SDS011;11385;50.822;4.324;2023-04-24T09:11:14;9.53;;;5.17;;
22435;SDS011;11385;50.822;4.324;2023-04-24T09:13:41;15.15;;;5.50;;
22435;SDS011;11385;50.822;4.324;2023-04-24T09:16:08;8.30;;;4.35;;
22435;SDS011;11385;50.822;4.324;2023-04-24T09:18:35;10.18;;;4.53;;
22435;SDS011;11385;50.822;4.324;2023-04-24T09:21:03;8.40;;;4.03;;
22435;SDS011;11385;50.822;4.324;2023-04-24T09:23:33;11.97;;;5.40;;
22435;SDS011;11385;50.822;4.324;2023-04-24T09:26:00;8.93;;;3.75;;
22435;SDS011;11385;50.822;4.324;2023-04-24T09:28:30;11.65;;;4.37;;
22435;SDS011;11385;50.822;4.324;2023-04-24T09:33:31;12.55;;;4.22;;
22435;SDS011;11385;50.822;4.324;2023-04-24T09:35:57;10.15;;;3.90;;
22435;SDS011;11385;50.822;4.324;2023-04-24T09:38:39;9.95;;;4.37;;
22435;SDS011;11385;50.822;4.324;2023-04-24T09:41:07;8.80;;;3.85;;
22435;SDS011;11385;50.822;4.324;2023-04-24T09:43:36;11.93;;;4.30;;
22435;SDS011;11385;50.822;4.324;2023-04-24T09:46:06;12.60;;;4.58;;
22435;SDS011;11385;50.822;4.324;2023-04-24T09:48:35;11.83;;;4.47;;
22435;SDS011;11385;50.822;4.324;2023-04-24T09:51:03;8.80;;;4.42;;
22435;SDS011;11385;50.822;4.324;2023-04-24T09:53:36;13.53;;;4.78;;
22435;SDS011;11385;50.822;4.324;2023-04-24T09:56:06;10.72;;;3.72;;
22435;SDS011;11385;50.822;4.324;2023-04-24T09:58:36;8.68;;;3.95;;
22435;SDS011;11385;50.822;4.324;2023-04-24T10:01:03;9.58;;;3.50;;
22435;SDS011;11385;50.822;4.324;2023-04-24T10:03:31;8.60;;;4.12;;
22435;SDS011;11385;50.822;4.324;2023-04-24T10:05:59;8.90;;;3.60;;
22435;SDS011;11385;50.822;4.324;2023-04-24T10:08:27;8.70;;;3.62;;
22435;SDS011;11385;50.822;4.324;2023-04-24T10:11:00;9.53;;;4.33;;
22435;SDS011;11385;50.822;4.324;2023-04-24T10:13:27;10.80;;;4.87;;
22435;SDS011;11385;50.822;4.324;2023-04-24T10:15:54;9.48;;;4.45;;
22435;SDS011;11385;50.822;4.324;2023-04-24T10:18:24;11.70;;;4.05;;
22435;SDS011;11385;50.822;4.324;2023-04-24T10:20:52;9.25;;;4.50;;
22435;SDS011;11385;50.822;4.324;2023-04-24T10:23:20;14.63;;;5.03;;
22435;SDS011;11385;50.822;4.324;2023-04-24T10:25:47;11.88;;;5.03;;
22435;SDS011;11385;50.822;4.324;2023-04-24T10:28:17;8.48;;;5.30;;
22435;SDS011;11385;50.822;4.324;2023-04-24T10:30:45;11.65;;;4.78;;
22435;SDS011;11385;50.822;4.324;2023-04-24T10:33:12;10.93;;;4.55;;
22435;SDS011;11385;50.822;4.324;2023-04-24T10:35:41;10.98;;;4.62;;
22435;SDS011;11385;50.822;4.324;2023-04-24T10:38:12;10.25;;;4.90;;
22435;SDS011;11385;50.822;4.324;2023-04-24T10:40:40;10.48;;;5.30;;
22435;SDS011;11385;50.822;4.324;2023-04-24T10:43:08;8.73;;;4.67;;
22435;SDS011;11385;50.822;4.324;2023-04-24T10:45:38;9.05;;;4.25;;
22435;SDS011;11385;50.822;4.324;2023-04-24T10:48:06;9.58;;;4.60;;
22435;SDS011;11385;50.822;4.324;2023-04-24T10:50:44;10.00;;;4.70;;
22435;SDS011;11385;50.822;4.324;2023-04-24T10:53:14;11.53;;;5.25;;
22435;SDS011;11385;50.822;4.324;2023-04-24T10:55:44;9.48;;;4.95;;
22435;SDS011;11385;50.822;4.324;2023-04-24T10:58:15;10.65;;;5.08;;
22435;SDS011;11385;50.822;4.324;2023-04-24T11:00:43;10.65;;;5.33;;
22435;SDS011;11385;50.822;4.324;2023-04-24T11:03:26;10.90;;;5.97;;
22435;SDS011;11385;50.822;4.324;2023-04-24T11:05:59;9.18;;;5.20;;
22435;SDS011;11385;50.822;4.324;2023-04-24T11:08:30;10.90;;;5.42;;
22435;SDS011;11385;50.822;4.324;2023-04-24T11:11:10;11.60;;;5.10;;
22435;SDS011;11385;50.822;4.324;2023-04-24T11:16:20;7.37;;;5.00;;
22435;SDS011;11385;50.822;4.324;2023-04-24T11:18:51;10.13;;;4.90;;
22435;SDS011;11385;50.822;4.324;2023-04-24T11:21:20;7.90;;;4.40;;
22435;SDS011;11385;50.822;4.324;2023-04-24T11:23:48;12.82;;;5.25;;
22435;SDS011;11385;50.822;4.324;2023-04-24T11:26:19;12.00;;;5.53;;
22435;SDS011;11385;50.822;4.324;2023-04-24T11:28:50;11.80;;;4.85;;
22435;SDS011;11385;50.822;4.324;2023-04-24T11:33:56;9.00;;;5.78;;
22435;SDS011;11385;50.822;4.324;2023-04-24T11:36:25;9.80;;;5.83;;
22435;SDS011;11385;50.822;4.324;2023-04-24T11:38:52;12.13;;;6.00;;
22435;SDS011;11385;50.822;4.324;2023-04-24T11:41:19;8.70;;;5.00;;
22435;SDS011;11385;50.822;4.324;2023-04-24T11:43:47;10.05;;;6.22;;
22435;SDS011;11385;50.822;4.324;2023-04-24T11:46:16;12.70;;;6.55;;
22435;SDS011;11385;50.822;4.324;2023-04-24T11:48:45;9.23;;;5.83;;
22435;SDS011;11385;50.822;4.324;2023-04-24T11:51:12;11.55;;;5.70;;
22435;SDS011;11385;50.822;4.324;2023-04-24T11:53:39;12.33;;;6.78;;
22435;SDS011;11385;50.822;4.324;2023-04-24T11:56:08;10.15;;;5.80;;
22435;SDS011;11385;50.822;4.324;2023-04-24T11:58:35;9.15;;;6.55;;
22435;SDS011;11385;50.822;4.324;2023-04-24T12:01:03;9.60;;;6.45;;
22435;SDS011;11385;50.822;4.324;2023-04-24T12:03:30;13.75;;;7.25;;
22435;SDS011;11385;50.822;4.324;2023-04-24T12:08:33;9.70;;;5.47;;
22435;SDS011;11385;50.822;4.324;2023-04-24T12:11:01;12.50;;;6.30;;
22435;SDS011;11385;50.822;4.324;2023-04-24T12:13:30;8.20;;;5.47;;
22435;SDS011;11385;50.822;4.324;2023-04-24T12:15:57;10.72;;;6.17;;
22435;SDS011;11385;50.822;4.324;2023-04-24T12:18:24;11.70;;;7.00;;
22435;SDS011;11385;50.822;4.324;2023-04-24T12:20:51;12.23;;;6.30;;
22435;SDS011;11385;50.822;4.324;2023-04-24T12:25:59;8.18;;;5.20;;
22435;SDS011;11385;50.822;4.324;2023-04-24T12:28:34;11.25;;;6.92;;
22435;SDS011;11385;50.822;4.324;2023-04-24T12:30:57;9.90;;;5.90;;
22435;SDS011;11385;50.822;4.324;2023-04-24T12:33:26;11.48;;;5.90;;
22435;SDS011;11385;50.822;4.324;2023-04-24T12:35:53;12.45;;;5.97;;
22435;SDS011;11385;50.822;4.324;2023-04-24T12:38:22;8.03;;;5.87;;
22435;SDS011;11385;50.822;4.324;2023-04-24T12:43:30;8.80;;;6.05;;
22435;SDS011;11385;50.822;4.324;2023-04-24T12:45:57;11.28;;;5.58;;
22435;SDS011;11385;50.822;4.324;2023-04-24T12:48:25;8.05;;;5.08;;
22435;SDS011;11385;50.822;4.324;2023-04-24T12:50:52;8.10;;;4.70;;
22435;SDS011;11385;50.822;4.324;2023-04-24T12:53:19;49.42;;;30.23;;
22435;SDS011;11385;50.822;4.324;2023-04-24T12:55:46;7.97;;;4.92;;
22435;SDS011;11385;50.822;4.324;2023-04-24T12:58:14;8.18;;;4.55;;
22435;SDS011;11385;50.822;4.324;2023-04-24T13:00:41;8.05;;;4.08;;
22435;SDS011;11385;50.822;4.324;2023-04-24T13:03:09;7.97;;;4.15;;
22435;SDS011;11385;50.822;4.324;2023-04-24T13:05:35;8.13;;;4.53;;
22435;SDS011;11385;50.822;4.324;2023-04-24T13:08:02;9.93;;;4.80;;
22435;SDS011;11385;50.822;4.324;2023-04-24T13:10:29;9.53;;;4.37;;
22435;SDS011;11385;50.822;4.324;2023-04-24T13:12:56;7.28;;;3.92;;
22435;SDS011;11385;50.822;4.324;2023-04-24T13:15:23;8.63;;;4.28;;
22435;SDS011;11385;50.822;4.324;2023-04-24T13:17:50;8.18;;;3.62;;
22435;SDS011;11385;50.822;4.324;2023-04-24T13:20:17;8.08;;;3.95;;
22435;SDS011;11385;50.822;4.324;2023-04-24T13:22:44;11.03;;;3.92;;
22435;SDS011;11385;50.822;4.324;2023-04-24T13:25:10;8.65;;;3.77;;
22435;SDS011;11385;50.822;4.324;2023-04-24T13:27:38;7.90;;;3.52;;
22435;SDS011;11385;50.822;4.324;2023-04-24T13:30:06;7.85;;;3.33;;
22435;SDS011;11385;50.822;4.324;2023-04-24T13:32:33;6.10;;;2.92;;
22435;SDS011;11385;50.822;4.324;2023-04-24T13:35:00;6.03;;;3.17;;
22435;SDS011;11385;50.822;4.324;2023-04-24T13:37:28;16.30;;;5.03;;
22435;SDS011;11385;50.822;4.324;2023-04-24T13:39:55;9.33;;;4.08;;
22435;SDS011;11385;50.822;4.324;2023-04-24T13:42:21;8.13;;;3.10;;
22435;SDS011;11385;50.822;4.324;2023-04-24T13:44:48;11.18;;;3.17;;
22435;SDS011;11385;50.822;4.324;2023-04-24T13:47:16;9.65;;;2.95;;
22435;SDS011;11385;50.822;4.324;2023-04-24T13:49:43;7.12;;;3.05;;
22435;SDS011;11385;50.822;4.324;2023-04-24T13:52:09;7.85;;;3.15;;
22435;SDS011;11385;50.822;4.324;2023-04-24T13:54:36;9.00;;;3.08;;
22435;SDS011;11385;50.822;4.324;2023-04-24T13:57:03;6.00;;;2.98;;
22435;SDS011;11385;50.822;4.324;2023-04-24T13:59:30;5.67;;;2.37;;
22435;SDS011;11385;50.822;4.324;2023-04-24T14:01:56;6.35;;;2.87;;
22435;SDS011;11385;50.822;4.324;2023-04-24T14:04:23;7.15;;;2.58;;
22435;SDS011;11385;50.822;4.324;2023-04-24T14:06:50;7.05;;;2.80;;
22435;SDS011;11385;50.822;4.324;2023-04-24T14:09:16;5.47;;;2.62;;
22435;SDS011;11385;50.822;4.324;2023-04-24T14:11:43;6.70;;;2.40;;
22435;SDS011;11385;50.822;4.324;2023-04-24T14:14:10;5.97;;;1.95;;
22435;SDS011;11385;50.822;4.324;2023-04-24T14:16:37;6.05;;;2.47;;
22435;SDS011;11385;50.822;4.324;2023-04-24T14:19:03;6.05;;;2.10;;
22435;SDS011;11385;50.822;4.324;2023-04-24T14:21:32;3.77;;;1.77;;
22435;SDS011;11385;50.822;4.324;2023-04-24T14:23:59;7.72;;;2.00;;
22435;SDS011;11385;50.822;4.324;2023-04-24T14:26:26;5.83;;;2.40;;
22435;SDS011;11385;50.822;4.324;2023-04-24T14:28:53;5.47;;;2.40;;
22435;SDS011;11385;50.822;4.324;2023-04-24T14:31:20;7.22;;;2.40;;
22435;SDS011;11385;50.822;4.324;2023-04-24T14:33:47;5.78;;;1.98;;
22435;SDS011;11385;50.822;4.324;2023-04-24T14:41:46;4.05;;;1.42;;
22435;SDS011;11385;50.822;4.324;2023-04-24T14:44:23;4.65;;;1.65;;
22435;SDS011;11385;50.822;4.324;2023-04-24T14:46:58;3.77;;;1.80;;
22435;SDS011;11385;50.822;4.324;2023-04-24T14:52:18;3.90;;;1.90;;
22435;SDS011;11385;50.822;4.324;2023-04-24T15:03:39;4.10;;;1.70;;
22435;SDS011;11385;50.822;4.324;2023-04-24T15:06:15;8.48;;;3.12;;